sensor_id;sensor_type;location;lat;lon;timestamp;temperature;humidity
73322;DHT22;61549;37.044;22.128;2022-12-10T00:01:06;20.20;67.10
73322;DHT22;61549;37.044;22.128;2022-12-10T00:03:33;20.20;67.20
73322;DHT22;61549;37.044;22.128;2022-12-10T00:06:04;20.20;67.30
73322;DHT22;61549;37.044;22.128;2022-12-10T00:08:30;20.20;67.10
73322;DHT22;61549;37.044;22.128;2022-12-10T00:10:56;20.20;67.10
73322;DHT22;61549;37.044;22.128;2022-12-10T00:13:22;20.20;67.20
73322;DHT22;61549;37.044;22.128;2022-12-10T00:15:48;20.20;67.20
73322;DHT22;61549;37.044;22.128;2022-12-10T00:18:14;20.20;67.30
73322;DHT22;61549;37.044;22.128;2022-12-10T00:20:40;20.20;67.60
73322;DHT22;61549;37.044;22.128;2022-12-10T00:23:06;20.20;67.90
73322;DHT22;61549;37.044;22.128;2022-12-10T00:25:32;20.20;68.10
73322;DHT22;61549;37.044;22.128;2022-12-10T00:27:58;20.20;68.10
73322;DHT22;61549;37.044;22.128;2022-12-10T00:30:34;20.30;68.10
73322;DHT22;61549;37.044;22.128;2022-12-10T00:33:00;20.30;67.70
73322;DHT22;61549;37.044;22.128;2022-12-10T00:35:26;20.30;67.30
73322;DHT22;61549;37.044;22.128;2022-12-10T00:38:09;20.40;66.40
73322;DHT22;61549;37.044;22.128;2022-12-10T00:40:35;20.40;65.70
73322;DHT22;61549;37.044;22.128;2022-12-10T00:43:01;20.30;65.50
73322;DHT22;61549;37.044;22.128;2022-12-10T00:45:27;20.30;65.40
73322;DHT22;61549;37.044;22.128;2022-12-10T00:47:53;20.30;65.50
73322;DHT22;61549;37.044;22.128;2022-12-10T00:50:18;20.30;65.20
73322;DHT22;61549;37.044;22.128;2022-12-10T00:52:44;20.30;64.80
73322;DHT22;61549;37.044;22.128;2022-12-10T00:55:10;20.30;64.20
73322;DHT22;61549;37.044;22.128;2022-12-10T00:57:36;20.30;64.30
73322;DHT22;61549;37.044;22.128;2022-12-10T01:00:03;20.30;64.50
73322;DHT22;61549;37.044;22.128;2022-12-10T01:02:29;20.30;64.40
73322;DHT22;61549;37.044;22.128;2022-12-10T01:04:55;20.30;64.40
73322;DHT22;61549;37.044;22.128;2022-12-10T01:07:21;20.30;64.00
73322;DHT22;61549;37.044;22.128;2022-12-10T01:09:47;20.30;64.00
73322;DHT22;61549;37.044;22.128;2022-12-10T01:12:13;20.30;64.20
73322;DHT22;61549;37.044;22.128;2022-12-10T01:14:38;20.30;64.10
73322;DHT22;61549;37.044;22.128;2022-12-10T01:17:05;20.30;64.00
73322;DHT22;61549;37.044;22.128;2022-12-10T01:19:32;20.30;63.80
73322;DHT22;61549;37.044;22.128;2022-12-10T01:22:01;20.40;63.90
73322;DHT22;61549;37.044;22.128;2022-12-10T01:24:28;20.40;64.00
73322;DHT22;61549;37.044;22.128;2022-12-10T01:26:55;20.40;64.10
73322;DHT22;61549;37.044;22.128;2022-12-10T01:29:21;20.40;64.20
73322;DHT22;61549;37.044;22.128;2022-12-10T01:31:51;20.40;64.30
73322;DHT22;61549;37.044;22.128;2022-12-10T01:34:17;20.40;64.30
73322;DHT22;61549;37.044;22.128;2022-12-10T01:36:44;20.40;64.30
73322;DHT22;61549;37.044;22.128;2022-12-10T01:39:14;20.40;64.00
73322;DHT22;61549;37.044;22.128;2022-12-10T01:46:45;20.30;64.00
73322;DHT22;61549;37.044;22.128;2022-12-10T01:49:24;20.40;64.00
73322;DHT22;61549;37.044;22.128;2022-12-10T01:51:53;20.40;63.70
73322;DHT22;61549;37.044;22.128;2022-12-10T01:54:26;20.50;63.80
73322;DHT22;61549;37.044;22.128;2022-12-10T01:59:48;20.40;63.50
73322;DHT22;61549;37.044;22.128;2022-12-10T02:02:29;20.40;63.60
73322;DHT22;61549;37.044;22.128;2022-12-10T02:08:05;20.40;63.60
73322;DHT22;61549;37.044;22.128;2022-12-10T02:10:58;20.50;63.70
73322;DHT22;61549;37.044;22.128;2022-12-10T02:13:40;20.40;63.90
73322;DHT22;61549;37.044;22.128;2022-12-10T02:16:15;20.30;64.00
73322;DHT22;61549;37.044;22.128;2022-12-10T02:18:47;20.30;63.90
73322;DHT22;61549;37.044;22.128;2022-12-10T02:21:28;20.30;63.80
73322;DHT22;61549;37.044;22.128;2022-12-10T02:24:24;20.30;64.00
73322;DHT22;61549;37.044;22.128;2022-12-10T02:27:01;20.30;64.50
73322;DHT22;61549;37.044;22.128;2022-12-10T02:29:30;20.20;64.60
73322;DHT22;61549;37.044;22.128;2022-12-10T02:32:04;20.20;64.90
73322;DHT22;61549;37.044;22.128;2022-12-10T02:34:35;20.30;65.10
73322;DHT22;61549;37.044;22.128;2022-12-10T02:37:06;20.30;65.20
73322;DHT22;61549;37.044;22.128;2022-12-10T02:39:40;20.30;65.10
73322;DHT22;61549;37.044;22.128;2022-12-10T02:42:07;20.30;65.10
73322;DHT22;61549;37.044;22.128;2022-12-10T02:44:36;20.20;64.80
73322;DHT22;61549;37.044;22.128;2022-12-10T02:47:03;20.20;64.60
73322;DHT22;61549;37.044;22.128;2022-12-10T02:49:30;20.20;64.40
73322;DHT22;61549;37.044;22.128;2022-12-10T02:51:56;20.20;64.50
73322;DHT22;61549;37.044;22.128;2022-12-10T02:54:52;20.20;64.30
73322;DHT22;61549;37.044;22.128;2022-12-10T03:00:21;20.30;64.10
73322;DHT22;61549;37.044;22.128;2022-12-10T03:13:14;20.20;63.80
73322;DHT22;61549;37.044;22.128;2022-12-10T03:15:42;20.30;63.90
73322;DHT22;61549;37.044;22.128;2022-12-10T03:18:10;20.30;63.90
73322;DHT22;61549;37.044;22.128;2022-12-10T03:20:41;20.20;63.70
73322;DHT22;61549;37.044;22.128;2022-12-10T03:23:15;20.20;64.00
73322;DHT22;61549;37.044;22.128;2022-12-10T03:25:43;20.30;63.80
73322;DHT22;61549;37.044;22.128;2022-12-10T03:28:10;20.20;63.70
73322;DHT22;61549;37.044;22.128;2022-12-10T03:30:37;20.30;63.80
73322;DHT22;61549;37.044;22.128;2022-12-10T03:33:05;20.30;64.10
73322;DHT22;61549;37.044;22.128;2022-12-10T03:35:31;20.30;64.70
73322;DHT22;61549;37.044;22.128;2022-12-10T03:37:58;20.30;65.40
73322;DHT22;61549;37.044;22.128;2022-12-10T03:40:24;20.30;66.10
73322;DHT22;61549;37.044;22.128;2022-12-10T03:42:51;20.30;66.50
73322;DHT22;61549;37.044;22.128;2022-12-10T03:45:16;20.30;67.00
73322;DHT22;61549;37.044;22.128;2022-12-10T03:47:42;20.20;67.00
73322;DHT22;61549;37.044;22.128;2022-12-10T03:50:09;20.20;66.90
73322;DHT22;61549;37.044;22.128;2022-12-10T03:52:35;20.10;66.90
73322;DHT22;61549;37.044;22.128;2022-12-10T03:55:02;20.10;66.50
73322;DHT22;61549;37.044;22.128;2022-12-10T03:57:28;20.10;66.40
73322;DHT22;61549;37.044;22.128;2022-12-10T03:59:54;20.10;66.30
73322;DHT22;61549;37.044;22.128;2022-12-10T04:02:20;20.10;66.20
73322;DHT22;61549;37.044;22.128;2022-12-10T04:04:46;20.10;66.30
73322;DHT22;61549;37.044;22.128;2022-12-10T04:07:12;20.10;66.20
73322;DHT22;61549;37.044;22.128;2022-12-10T04:09:38;20.10;66.20
73322;DHT22;61549;37.044;22.128;2022-12-10T04:12:04;20.10;66.20
73322;DHT22;61549;37.044;22.128;2022-12-10T04:14:30;20.10;66.40
73322;DHT22;61549;37.044;22.128;2022-12-10T04:17:14;20.10;66.60
73322;DHT22;61549;37.044;22.128;2022-12-10T04:19:41;20.10;66.60
73322;DHT22;61549;37.044;22.128;2022-12-10T04:22:09;20.10;66.60
73322;DHT22;61549;37.044;22.128;2022-12-10T04:24:53;20.10;66.70
73322;DHT22;61549;37.044;22.128;2022-12-10T04:27:39;20.10;66.90
73322;DHT22;61549;37.044;22.128;2022-12-10T04:30:08;20.10;67.20
73322;DHT22;61549;37.044;22.128;2022-12-10T04:32:34;20.10;67.20
73322;DHT22;61549;37.044;22.128;2022-12-10T04:35:00;20.10;67.20
73322;DHT22;61549;37.044;22.128;2022-12-10T04:37:27;20.10;67.00
73322;DHT22;61549;37.044;22.128;2022-12-10T04:39:53;20.10;66.80
73322;DHT22;61549;37.044;22.128;2022-12-10T04:42:20;20.10;66.70
73322;DHT22;61549;37.044;22.128;2022-12-10T04:44:47;20.10;66.60
73322;DHT22;61549;37.044;22.128;2022-12-10T04:47:13;20.00;66.60
73322;DHT22;61549;37.044;22.128;2022-12-10T04:49:39;20.10;66.60
73322;DHT22;61549;37.044;22.128;2022-12-10T04:52:06;20.00;66.10
73322;DHT22;61549;37.044;22.128;2022-12-10T04:54:32;20.00;65.80
73322;DHT22;61549;37.044;22.128;2022-12-10T04:56:58;20.00;65.60
73322;DHT22;61549;37.044;22.128;2022-12-10T04:59:24;20.00;65.30
73322;DHT22;61549;37.044;22.128;2022-12-10T05:01:50;20.00;65.10
73322;DHT22;61549;37.044;22.128;2022-12-10T05:04:17;20.00;64.90
73322;DHT22;61549;37.044;22.128;2022-12-10T05:06:44;20.00;64.70
73322;DHT22;61549;37.044;22.128;2022-12-10T05:09:11;20.00;64.60
73322;DHT22;61549;37.044;22.128;2022-12-10T05:11:37;19.90;65.10
73322;DHT22;61549;37.044;22.128;2022-12-10T05:14:03;19.90;63.90
73322;DHT22;61549;37.044;22.128;2022-12-10T05:16:31;19.90;64.00
73322;DHT22;61549;37.044;22.128;2022-12-10T05:18:58;20.00;64.00
73322;DHT22;61549;37.044;22.128;2022-12-10T05:21:27;20.00;63.90
73322;DHT22;61549;37.044;22.128;2022-12-10T05:24:11;20.00;63.80
73322;DHT22;61549;37.044;22.128;2022-12-10T05:26:37;20.00;63.80
73322;DHT22;61549;37.044;22.128;2022-12-10T05:29:03;20.00;64.40
73322;DHT22;61549;37.044;22.128;2022-12-10T05:31:29;20.00;64.20
73322;DHT22;61549;37.044;22.128;2022-12-10T05:33:57;20.10;65.00
73322;DHT22;61549;37.044;22.128;2022-12-10T05:36:29;20.10;65.30
73322;DHT22;61549;37.044;22.128;2022-12-10T05:38:56;20.00;64.50
73322;DHT22;61549;37.044;22.128;2022-12-10T05:41:25;20.00;64.30
73322;DHT22;61549;37.044;22.128;2022-12-10T05:43:54;20.00;63.80
73322;DHT22;61549;37.044;22.128;2022-12-10T05:46:23;20.00;64.00
73322;DHT22;61549;37.044;22.128;2022-12-10T05:48:50;19.90;64.10
73322;DHT22;61549;37.044;22.128;2022-12-10T05:51:19;19.90;64.10
73322;DHT22;61549;37.044;22.128;2022-12-10T05:53:45;19.90;64.50
73322;DHT22;61549;37.044;22.128;2022-12-10T05:56:14;19.80;64.50
73322;DHT22;61549;37.044;22.128;2022-12-10T05:58:42;19.90;65.00
73322;DHT22;61549;37.044;22.128;2022-12-10T06:01:10;19.90;65.40
73322;DHT22;61549;37.044;22.128;2022-12-10T06:03:37;19.90;65.40
73322;DHT22;61549;37.044;22.128;2022-12-10T06:06:04;19.90;65.30
73322;DHT22;61549;37.044;22.128;2022-12-10T06:08:31;19.90;65.10
73322;DHT22;61549;37.044;22.128;2022-12-10T06:11:01;19.90;64.80
73322;DHT22;61549;37.044;22.128;2022-12-10T06:13:27;19.90;64.20
73322;DHT22;61549;37.044;22.128;2022-12-10T06:15:53;19.90;64.00
73322;DHT22;61549;37.044;22.128;2022-12-10T06:18:19;20.00;63.70
73322;DHT22;61549;37.044;22.128;2022-12-10T06:20:44;20.00;63.60
73322;DHT22;61549;37.044;22.128;2022-12-10T06:23:10;20.00;63.90
73322;DHT22;61549;37.044;22.128;2022-12-10T06:25:38;20.00;63.10
73322;DHT22;61549;37.044;22.128;2022-12-10T06:28:05;20.00;63.00
73322;DHT22;61549;37.044;22.128;2022-12-10T06:30:32;20.10;63.10
73322;DHT22;61549;37.044;22.128;2022-12-10T06:32:58;20.10;62.70
73322;DHT22;61549;37.044;22.128;2022-12-10T06:35:24;20.10;62.80
73322;DHT22;61549;37.044;22.128;2022-12-10T06:37:50;20.20;62.20
73322;DHT22;61549;37.044;22.128;2022-12-10T06:40:16;20.20;61.80
73322;DHT22;61549;37.044;22.128;2022-12-10T06:42:42;20.30;61.80
73322;DHT22;61549;37.044;22.128;2022-12-10T06:45:08;20.40;61.70
73322;DHT22;61549;37.044;22.128;2022-12-10T06:47:35;20.50;61.60
73322;DHT22;61549;37.044;22.128;2022-12-10T06:50:01;20.50;61.40
73322;DHT22;61549;37.044;22.128;2022-12-10T06:52:27;20.50;61.50
73322;DHT22;61549;37.044;22.128;2022-12-10T06:54:52;20.50;62.20
73322;DHT22;61549;37.044;22.128;2022-12-10T06:57:21;20.50;62.80
73322;DHT22;61549;37.044;22.128;2022-12-10T06:59:47;20.50;63.30
73322;DHT22;61549;37.044;22.128;2022-12-10T07:02:13;20.40;62.20
73322;DHT22;61549;37.044;22.128;2022-12-10T07:04:39;20.40;61.80
73322;DHT22;61549;37.044;22.128;2022-12-10T07:07:05;20.40;61.90
73322;DHT22;61549;37.044;22.128;2022-12-10T07:09:33;20.40;62.00
73322;DHT22;61549;37.044;22.128;2022-12-10T07:11:59;20.40;62.70
73322;DHT22;61549;37.044;22.128;2022-12-10T07:14:25;20.50;62.70
73322;DHT22;61549;37.044;22.128;2022-12-10T07:16:51;20.50;62.90
73322;DHT22;61549;37.044;22.128;2022-12-10T07:19:16;20.50;62.90
73322;DHT22;61549;37.044;22.128;2022-12-10T07:21:43;20.40;63.30
73322;DHT22;61549;37.044;22.128;2022-12-10T07:24:17;20.50;63.50
73322;DHT22;61549;37.044;22.128;2022-12-10T07:26:45;20.50;63.80
73322;DHT22;61549;37.044;22.128;2022-12-10T07:29:20;20.50;64.00
73322;DHT22;61549;37.044;22.128;2022-12-10T07:31:47;20.50;63.70
73322;DHT22;61549;37.044;22.128;2022-12-10T07:34:14;20.40;63.30
73322;DHT22;61549;37.044;22.128;2022-12-10T07:36:40;20.50;63.40
73322;DHT22;61549;37.044;22.128;2022-12-10T07:39:08;20.50;63.40
73322;DHT22;61549;37.044;22.128;2022-12-10T07:41:35;20.50;63.30
73322;DHT22;61549;37.044;22.128;2022-12-10T07:44:03;20.40;63.30
73322;DHT22;61549;37.044;22.128;2022-12-10T07:46:32;20.40;63.80
73322;DHT22;61549;37.044;22.128;2022-12-10T07:49:01;20.50;64.70
73322;DHT22;61549;37.044;22.128;2022-12-10T07:51:28;20.50;64.80
73322;DHT22;61549;37.044;22.128;2022-12-10T07:53:55;20.40;64.80
73322;DHT22;61549;37.044;22.128;2022-12-10T07:56:22;20.40;64.90
73322;DHT22;61549;37.044;22.128;2022-12-10T07:58:49;20.50;65.00
73322;DHT22;61549;37.044;22.128;2022-12-10T08:01:18;20.40;64.70
73322;DHT22;61549;37.044;22.128;2022-12-10T08:03:45;20.50;64.30
73322;DHT22;61549;37.044;22.128;2022-12-10T08:06:15;20.50;64.10
73322;DHT22;61549;37.044;22.128;2022-12-10T08:08:43;20.50;63.70
73322;DHT22;61549;37.044;22.128;2022-12-10T08:11:10;20.50;63.60
73322;DHT22;61549;37.044;22.128;2022-12-10T08:13:37;20.50;63.40
73322;DHT22;61549;37.044;22.128;2022-12-10T08:16:12;20.60;63.70
73322;DHT22;61549;37.044;22.128;2022-12-10T08:18:38;20.60;64.00
73322;DHT22;61549;37.044;22.128;2022-12-10T08:21:05;20.60;64.20
73322;DHT22;61549;37.044;22.128;2022-12-10T08:23:31;20.50;64.60
73322;DHT22;61549;37.044;22.128;2022-12-10T08:25:57;20.60;63.70
73322;DHT22;61549;37.044;22.128;2022-12-10T08:28:22;20.70;63.20
73322;DHT22;61549;37.044;22.128;2022-12-10T08:30:49;20.70;63.60
73322;DHT22;61549;37.044;22.128;2022-12-10T08:33:15;20.70;62.90
73322;DHT22;61549;37.044;22.128;2022-12-10T08:35:41;20.70;62.40
73322;DHT22;61549;37.044;22.128;2022-12-10T08:38:07;20.80;61.90
73322;DHT22;61549;37.044;22.128;2022-12-10T08:40:33;20.80;61.90
73322;DHT22;61549;37.044;22.128;2022-12-10T08:42:59;20.80;61.60
73322;DHT22;61549;37.044;22.128;2022-12-10T08:45:25;20.80;61.60
73322;DHT22;61549;37.044;22.128;2022-12-10T08:47:52;20.90;61.80
73322;DHT22;61549;37.044;22.128;2022-12-10T08:50:17;20.90;61.50
73322;DHT22;61549;37.044;22.128;2022-12-10T08:52:43;21.00;60.70
73322;DHT22;61549;37.044;22.128;2022-12-10T08:55:09;21.00;61.00
73322;DHT22;61549;37.044;22.128;2022-12-10T08:57:35;21.10;60.80
73322;DHT22;61549;37.044;22.128;2022-12-10T09:00:03;21.10;60.80
73322;DHT22;61549;37.044;22.128;2022-12-10T09:02:29;21.20;60.50
73322;DHT22;61549;37.044;22.128;2022-12-10T09:04:55;21.30;60.10
73322;DHT22;61549;37.044;22.128;2022-12-10T09:07:21;21.40;59.70
73322;DHT22;61549;37.044;22.128;2022-12-10T09:09:47;21.50;58.50
73322;DHT22;61549;37.044;22.128;2022-12-10T09:12:13;21.60;58.00
73322;DHT22;61549;37.044;22.128;2022-12-10T09:14:39;21.80;58.90
73322;DHT22;61549;37.044;22.128;2022-12-10T09:17:07;21.90;58.10
73322;DHT22;61549;37.044;22.128;2022-12-10T09:19:34;21.90;55.40
73322;DHT22;61549;37.044;22.128;2022-12-10T09:22:00;22.00;55.20
73322;DHT22;61549;37.044;22.128;2022-12-10T09:24:26;22.00;57.30
73322;DHT22;61549;37.044;22.128;2022-12-10T09:26:52;22.10;58.50
73322;DHT22;61549;37.044;22.128;2022-12-10T09:33:08;22.30;57.80
73322;DHT22;61549;37.044;22.128;2022-12-10T09:35:39;22.50;57.70
73322;DHT22;61549;37.044;22.128;2022-12-10T09:38:07;22.70;56.60
73322;DHT22;61549;37.044;22.128;2022-12-10T09:51:29;23.10;54.70
73322;DHT22;61549;37.044;22.128;2022-12-10T09:53:57;23.10;54.40
73322;DHT22;61549;37.044;22.128;2022-12-10T09:56:36;23.10;54.60
73322;DHT22;61549;37.044;22.128;2022-12-10T09:59:59;23.10;53.90
73322;DHT22;61549;37.044;22.128;2022-12-10T10:02:30;23.00;52.70
73322;DHT22;61549;37.044;22.128;2022-12-10T10:05:12;23.10;53.70
73322;DHT22;61549;37.044;22.128;2022-12-10T10:07:43;23.30;53.80
73322;DHT22;61549;37.044;22.128;2022-12-10T10:10:32;23.40;53.10
73322;DHT22;61549;37.044;22.128;2022-12-10T10:15:48;23.40;52.30
73322;DHT22;61549;37.044;22.128;2022-12-10T10:18:33;23.40;52.70
73322;DHT22;61549;37.044;22.128;2022-12-10T10:21:00;23.50;54.30
73322;DHT22;61549;37.044;22.128;2022-12-10T10:23:26;23.50;55.20
73322;DHT22;61549;37.044;22.128;2022-12-10T10:25:52;23.50;55.20
73322;DHT22;61549;37.044;22.128;2022-12-10T10:28:21;23.40;54.90
73322;DHT22;61549;37.044;22.128;2022-12-10T10:30:47;23.50;55.30
73322;DHT22;61549;37.044;22.128;2022-12-10T10:33:15;23.40;53.30
73322;DHT22;61549;37.044;22.128;2022-12-10T10:35:57;23.40;53.60
73322;DHT22;61549;37.044;22.128;2022-12-10T10:38:29;23.40;52.40
73322;DHT22;61549;37.044;22.128;2022-12-10T10:41:03;23.40;52.10
73322;DHT22;61549;37.044;22.128;2022-12-10T10:43:39;23.30;52.10
73322;DHT22;61549;37.044;22.128;2022-12-10T10:46:25;23.20;51.80
73322;DHT22;61549;37.044;22.128;2022-12-10T10:48:51;23.20;51.80
73322;DHT22;61549;37.044;22.128;2022-12-10T10:51:22;23.20;54.60
73322;DHT22;61549;37.044;22.128;2022-12-10T10:53:52;23.30;56.20
73322;DHT22;61549;37.044;22.128;2022-12-10T10:56:25;23.30;56.30
73322;DHT22;61549;37.044;22.128;2022-12-10T10:59:04;23.20;55.70
73322;DHT22;61549;37.044;22.128;2022-12-10T11:04:52;23.10;54.80
73322;DHT22;61549;37.044;22.128;2022-12-10T11:07:39;23.10;55.60
73322;DHT22;61549;37.044;22.128;2022-12-10T11:10:19;23.10;55.30
73322;DHT22;61549;37.044;22.128;2022-12-10T11:17:52;22.80;54.10
73322;DHT22;61549;37.044;22.128;2022-12-10T11:20:21;22.40;55.20
73322;DHT22;61549;37.044;22.128;2022-12-10T11:22:56;22.30;56.30
73322;DHT22;61549;37.044;22.128;2022-12-10T11:37:26;22.30;53.30
73322;DHT22;61549;37.044;22.128;2022-12-10T11:45:33;22.20;54.50
73322;DHT22;61549;37.044;22.128;2022-12-10T11:51:15;22.20;53.00
73322;DHT22;61549;37.044;22.128;2022-12-10T11:56:35;22.10;53.70
73322;DHT22;61549;37.044;22.128;2022-12-10T11:59:27;22.00;54.40
73322;DHT22;61549;37.044;22.128;2022-12-10T12:02:28;22.10;55.80
73322;DHT22;61549;37.044;22.128;2022-12-10T12:14:02;21.80;56.70
73322;DHT22;61549;37.044;22.128;2022-12-10T12:16:34;21.70;54.40
73322;DHT22;61549;37.044;22.128;2022-12-10T12:19:15;21.80;51.70
73322;DHT22;61549;37.044;22.128;2022-12-10T12:21:42;21.80;55.70
73322;DHT22;61549;37.044;22.128;2022-12-10T12:24:37;22.00;56.20
73322;DHT22;61549;37.044;22.128;2022-12-10T12:27:49;21.90;55.10
73322;DHT22;61549;37.044;22.128;2022-12-10T12:30:19;21.70;55.90
73322;DHT22;61549;37.044;22.128;2022-12-10T12:33:02;21.70;54.00
73322;DHT22;61549;37.044;22.128;2022-12-10T12:35:43;21.50;52.40
73322;DHT22;61549;37.044;22.128;2022-12-10T12:40:51;21.50;51.90
73322;DHT22;61549;37.044;22.128;2022-12-10T12:43:25;21.60;52.30
73322;DHT22;61549;37.044;22.128;2022-12-10T12:45:54;21.60;52.10
73322;DHT22;61549;37.044;22.128;2022-12-10T12:48:24;21.90;51.90
73322;DHT22;61549;37.044;22.128;2022-12-10T12:51:10;22.00;50.30
73322;DHT22;61549;37.044;22.128;2022-12-10T12:53:38;22.10;52.50
73322;DHT22;61549;37.044;22.128;2022-12-10T12:56:12;22.10;53.20
73322;DHT22;61549;37.044;22.128;2022-12-10T12:59:06;22.00;52.50
73322;DHT22;61549;37.044;22.128;2022-12-10T13:01:53;22.00;52.40
73322;DHT22;61549;37.044;22.128;2022-12-10T13:04:22;22.10;51.30
73322;DHT22;61549;37.044;22.128;2022-12-10T13:09:51;21.90;53.20
73322;DHT22;61549;37.044;22.128;2022-12-10T13:12:24;21.90;53.20
73322;DHT22;61549;37.044;22.128;2022-12-10T13:17:34;21.70;56.10
73322;DHT22;61549;37.044;22.128;2022-12-10T13:22:57;21.70;56.60
73322;DHT22;61549;37.044;22.128;2022-12-10T13:28:48;21.60;58.30
73322;DHT22;61549;37.044;22.128;2022-12-10T13:50:20;21.50;59.30
73322;DHT22;61549;37.044;22.128;2022-12-10T13:55:54;21.50;60.10
73322;DHT22;61549;37.044;22.128;2022-12-10T14:01:44;21.40;60.90
73322;DHT22;61549;37.044;22.128;2022-12-10T14:07:15;21.50;61.20
73322;DHT22;61549;37.044;22.128;2022-12-10T14:09:53;21.50;60.50
73322;DHT22;61549;37.044;22.128;2022-12-10T14:12:32;21.40;60.90
73322;DHT22;61549;37.044;22.128;2022-12-10T14:15:03;21.40;60.70
73322;DHT22;61549;37.044;22.128;2022-12-10T14:17:40;21.50;61.20
73322;DHT22;61549;37.044;22.128;2022-12-10T14:20:11;21.60;60.90
73322;DHT22;61549;37.044;22.128;2022-12-10T14:22:48;21.60;60.30
73322;DHT22;61549;37.044;22.128;2022-12-10T14:25:19;21.70;59.80
73322;DHT22;61549;37.044;22.128;2022-12-10T14:27:53;21.80;59.80
73322;DHT22;61549;37.044;22.128;2022-12-10T14:30:24;21.80;60.10
73322;DHT22;61549;37.044;22.128;2022-12-10T14:32:54;21.70;60.60
73322;DHT22;61549;37.044;22.128;2022-12-10T14:35:28;21.70;60.70
73322;DHT22;61549;37.044;22.128;2022-12-10T14:37:57;21.70;60.80
73322;DHT22;61549;37.044;22.128;2022-12-10T14:40:32;21.60;61.30
73322;DHT22;61549;37.044;22.128;2022-12-10T14:43:17;21.40;61.20
73322;DHT22;61549;37.044;22.128;2022-12-10T14:45:48;21.50;61.20
73322;DHT22;61549;37.044;22.128;2022-12-10T14:48:17;21.60;61.40
73322;DHT22;61549;37.044;22.128;2022-12-10T14:50:44;21.60;61.40
73322;DHT22;61549;37.044;22.128;2022-12-10T14:53:37;21.60;61.00
73322;DHT22;61549;37.044;22.128;2022-12-10T14:56:06;21.80;61.10
73322;DHT22;61549;37.044;22.128;2022-12-10T14:58:43;21.90;60.40
73322;DHT22;61549;37.044;22.128;2022-12-10T15:01:25;22.00;59.10
73322;DHT22;61549;37.044;22.128;2022-12-10T15:03:53;22.10;59.10
73322;DHT22;61549;37.044;22.128;2022-12-10T15:06:20;21.90;59.70
73322;DHT22;61549;37.044;22.128;2022-12-10T15:08:46;21.70;60.30
73322;DHT22;61549;37.044;22.128;2022-12-10T15:11:17;21.70;60.50
73322;DHT22;61549;37.044;22.128;2022-12-10T15:13:50;21.70;61.10
73322;DHT22;61549;37.044;22.128;2022-12-10T15:16:42;21.70;60.90
73322;DHT22;61549;37.044;22.128;2022-12-10T15:19:18;21.80;60.20
73322;DHT22;61549;37.044;22.128;2022-12-10T15:21:46;21.90;60.10
73322;DHT22;61549;37.044;22.128;2022-12-10T15:24:24;21.80;59.60
73322;DHT22;61549;37.044;22.128;2022-12-10T15:26:51;21.70;60.10
73322;DHT22;61549;37.044;22.128;2022-12-10T15:34:43;21.70;60.30
73322;DHT22;61549;37.044;22.128;2022-12-10T15:37:23;21.70;60.00
73322;DHT22;61549;37.044;22.128;2022-12-10T15:39:57;21.80;59.80
73322;DHT22;61549;37.044;22.128;2022-12-10T15:45:00;21.70;60.50
73322;DHT22;61549;37.044;22.128;2022-12-10T15:47:28;21.80;60.20
73322;DHT22;61549;37.044;22.128;2022-12-10T15:49:55;21.80;60.20
73322;DHT22;61549;37.044;22.128;2022-12-10T15:52:24;21.60;60.90
73322;DHT22;61549;37.044;22.128;2022-12-10T15:54:52;21.60;61.00
73322;DHT22;61549;37.044;22.128;2022-12-10T15:57:22;21.50;61.60
73322;DHT22;61549;37.044;22.128;2022-12-10T15:59:52;21.30;61.90
73322;DHT22;61549;37.044;22.128;2022-12-10T16:02:41;21.40;62.10
73322;DHT22;61549;37.044;22.128;2022-12-10T16:05:29;21.40;62.50
73322;DHT22;61549;37.044;22.128;2022-12-10T16:08:19;21.50;62.40
73322;DHT22;61549;37.044;22.128;2022-12-10T16:10:46;21.30;62.10
73322;DHT22;61549;37.044;22.128;2022-12-10T16:13:19;21.30;62.60
73322;DHT22;61549;37.044;22.128;2022-12-10T16:15:57;21.40;62.60
73322;DHT22;61549;37.044;22.128;2022-12-10T16:18:24;21.40;62.50
73322;DHT22;61549;37.044;22.128;2022-12-10T16:20:50;21.50;62.00
73322;DHT22;61549;37.044;22.128;2022-12-10T16:23:19;21.50;62.20
73322;DHT22;61549;37.044;22.128;2022-12-10T16:25:45;21.50;61.50
73322;DHT22;61549;37.044;22.128;2022-12-10T16:28:19;21.50;61.50
73322;DHT22;61549;37.044;22.128;2022-12-10T16:33:12;21.60;60.60
73322;DHT22;61549;37.044;22.128;2022-12-10T16:35:38;21.60;60.60
73322;DHT22;61549;37.044;22.128;2022-12-10T16:38:04;21.70;60.90
73322;DHT22;61549;37.044;22.128;2022-12-10T16:40:30;21.70;60.90
73322;DHT22;61549;37.044;22.128;2022-12-10T16:42:56;21.70;60.80
73322;DHT22;61549;37.044;22.128;2022-12-10T16:45:35;21.80;60.00
73322;DHT22;61549;37.044;22.128;2022-12-10T16:48:02;21.60;58.40
73322;DHT22;61549;37.044;22.128;2022-12-10T16:50:29;21.60;59.90
73322;DHT22;61549;37.044;22.128;2022-12-10T16:52:55;21.50;60.10
73322;DHT22;61549;37.044;22.128;2022-12-10T16:55:24;21.50;60.70
73322;DHT22;61549;37.044;22.128;2022-12-10T16:57:51;21.70;60.40
73322;DHT22;61549;37.044;22.128;2022-12-10T17:00:20;21.80;58.90
73322;DHT22;61549;37.044;22.128;2022-12-10T17:02:47;21.80;59.20
73322;DHT22;61549;37.044;22.128;2022-12-10T17:05:16;21.90;59.30
73322;DHT22;61549;37.044;22.128;2022-12-10T17:07:44;22.00;59.20
73322;DHT22;61549;37.044;22.128;2022-12-10T17:10:13;21.80;59.90
73322;DHT22;61549;37.044;22.128;2022-12-10T17:12:40;21.70;60.10
73322;DHT22;61549;37.044;22.128;2022-12-10T17:15:11;21.50;61.20
73322;DHT22;61549;37.044;22.128;2022-12-10T17:17:38;21.30;61.10
73322;DHT22;61549;37.044;22.128;2022-12-10T17:20:18;21.20;61.50
73322;DHT22;61549;37.044;22.128;2022-12-10T17:22:44;21.20;61.90
73322;DHT22;61549;37.044;22.128;2022-12-10T17:25:10;21.30;61.70
73322;DHT22;61549;37.044;22.128;2022-12-10T17:27:36;21.30;61.60
73322;DHT22;61549;37.044;22.128;2022-12-10T17:30:02;21.30;61.50
73322;DHT22;61549;37.044;22.128;2022-12-10T17:32:28;21.30;61.50
73322;DHT22;61549;37.044;22.128;2022-12-10T17:34:55;21.40;61.70
73322;DHT22;61549;37.044;22.128;2022-12-10T17:37:21;21.60;61.70
73322;DHT22;61549;37.044;22.128;2022-12-10T17:39:49;21.70;62.30
73322;DHT22;61549;37.044;22.128;2022-12-10T17:42:15;21.70;62.80
73322;DHT22;61549;37.044;22.128;2022-12-10T17:44:40;21.60;63.20
73322;DHT22;61549;37.044;22.128;2022-12-10T17:47:33;21.50;64.00
73322;DHT22;61549;37.044;22.128;2022-12-10T17:50:00;21.50;63.80